createdAt,value
2023-03-29T00:02:30.095Z,97506.69
2023-03-29T00:05:35.043Z,97516.53
2023-03-29T00:08:37.954Z,97508.91
2023-03-29T00:11:39.514Z,97510.97
2023-03-29T00:14:41.062Z,97510.94
2023-03-29T00:17:42.558Z,97495.34
2023-03-29T00:20:44.159Z,97500.50
2023-03-29T00:23:45.762Z,97485.53
2023-03-29T00:26:47.285Z,97483.84
2023-03-29T00:29:48.756Z,97488.91
2023-03-29T00:32:51.446Z,97473.53
2023-03-29T00:35:53.330Z,97474.44
2023-03-29T00:38:56.392Z,97491.47
2023-03-29T00:41:59.099Z,97487.19
2023-03-29T00:45:04.098Z,97484.34
2023-03-29T00:48:32.781Z,97485.78
2023-03-29T00:51:38.216Z,97481.09
2023-03-29T00:54:44.681Z,97491.50
2023-03-29T00:57:46.899Z,97497.66
2023-03-29T01:00:55.446Z,97463.41
2023-03-29T01:04:09.901Z,97467.94
2023-03-29T01:07:23.229Z,97455.41
2023-03-29T01:10:38.874Z,97457.31
2023-03-29T01:13:57.725Z,97463.47
2023-03-29T01:16:59.397Z,97454.06
2023-03-29T01:20:14.261Z,97454.44
2023-03-29T01:23:22.177Z,97451.56
2023-03-29T01:26:56.098Z,97443.34
2023-03-29T01:30:02.040Z,97446.03
2023-03-29T01:33:12.576Z,97454.84
2023-03-29T01:36:34.941Z,97455.44
2023-03-29T01:39:36.474Z,97453.19
2023-03-29T01:42:56.605Z,97448.06
2023-03-29T01:46:08.321Z,97438.47
2023-03-29T01:49:17.183Z,97445.84
2023-03-29T01:52:25.743Z,97435.38
2023-03-29T01:55:33.402Z,97431.88
2023-03-29T01:58:41.553Z,97441.91
2023-03-29T02:01:53.915Z,97430.47
2023-03-29T02:04:57.465Z,97422.06
2023-03-29T02:08:01.659Z,97425.75
2023-03-29T02:11:04.664Z,97432.69
2023-03-29T02:14:07.671Z,97444.78
2023-03-29T02:17:28.354Z,97432.91
2023-03-29T02:20:40.509Z,97432.28
2023-03-29T02:23:45.938Z,97428.41
2023-03-29T02:26:48.763Z,97420.22
2023-03-29T02:29:50.511Z,97418.59
2023-03-29T02:33:04.881Z,97411.41
2023-03-29T02:36:13.302Z,97413.44
2023-03-29T02:39:17.701Z,97407.91
2023-03-29T02:42:20.455Z,97407.28
2023-03-29T02:45:24.042Z,97401.97
2023-03-29T02:48:28.598Z,97403.22
2023-03-29T02:51:34.106Z,97407.53
2023-03-29T02:54:37.982Z,97401.59
2023-03-29T02:57:40.921Z,97405.06
2023-03-29T03:00:46.349Z,97390.94
2023-03-29T03:03:48.066Z,97398.09
2023-03-29T03:06:50.107Z,97394.00
2023-03-29T03:09:51.942Z,97402.00
2023-03-29T03:12:53.558Z,97396.06
2023-03-29T03:15:56.197Z,97390.31
2023-03-29T03:18:57.814Z,97398.50
2023-03-29T03:21:59.718Z,97390.09
2023-03-29T03:25:01.259Z,97379.44
2023-03-29T03:28:02.794Z,97389.09
2023-03-29T03:31:05.215Z,97388.03
2023-03-29T03:34:32.349Z,97392.34
2023-03-29T03:37:35.716Z,97386.41
2023-03-29T03:40:37.247Z,97374.09
2023-03-29T03:43:41.496Z,97378.81
2023-03-29T03:46:43.087Z,97379.63
2023-03-29T03:49:45.229Z,97385.81
2023-03-29T03:52:47.215Z,97384.75
2023-03-29T03:55:55.909Z,97391.34
2023-03-29T03:59:01.050Z,97387.66
2023-03-29T04:02:06.687Z,97372.03
2023-03-29T04:05:08.945Z,97382.50
2023-03-29T04:08:14.008Z,97373.03
2023-03-29T04:11:54.063Z,97370.56
2023-03-29T04:14:56.043Z,97361.59
2023-03-29T04:18:00.651Z,97368.06
2023-03-29T04:21:08.191Z,97369.91
2023-03-29T04:24:10.400Z,97363.41
2023-03-29T04:27:15.013Z,97361.84
2023-03-29T04:30:17.047Z,97363.63
2023-03-29T04:33:46.664Z,97368.06
2023-03-29T04:36:52.995Z,97351.78
2023-03-29T04:40:00.333Z,97355.16
2023-03-29T04:43:04.471Z,97348.94
2023-03-29T04:46:07.847Z,97356.84
2023-03-29T04:49:27.414Z,97362.28
2023-03-29T04:52:33.011Z,97362.88
2023-03-29T04:55:35.671Z,97356.19
2023-03-29T04:58:37.371Z,97360.47
2023-03-29T05:01:39.559Z,97354.44
2023-03-29T05:04:41.273Z,97365.16
2023-03-29T05:07:48.113Z,97370.66
2023-03-29T05:10:52.320Z,97365.22
2023-03-29T05:13:57.137Z,97376.44
2023-03-29T05:17:01.382Z,97372.16
2023-03-29T05:20:10.469Z,97391.34
2023-03-29T05:23:12.924Z,97367.72
2023-03-29T05:26:33.783Z,97371.91
2023-03-29T05:29:35.506Z,97384.47
2023-03-29T05:33:10.401Z,97368.97
2023-03-29T05:36:15.600Z,97375.19
2023-03-29T05:39:23.478Z,97367.38
2023-03-29T05:42:25.185Z,97372.72
2023-03-29T05:45:32.435Z,97369.72
2023-03-29T05:48:34.311Z,97369.72
2023-03-29T05:51:36.354Z,97376.50
2023-03-29T05:54:37.827Z,97383.19
2023-03-29T05:57:40.665Z,97378.72
2023-03-29T06:00:43.788Z,97397.47
2023-03-29T06:04:06.493Z,97373.41
2023-03-29T06:07:16.447Z,97376.75
2023-03-29T06:10:24.708Z,97380.81
2023-03-29T06:13:37.730Z,97379.00
2023-03-29T06:16:42.179Z,97378.44
2023-03-29T06:19:44.927Z,97362.72
2023-03-29T06:22:47.909Z,97377.91
2023-03-29T06:25:51.385Z,97373.63
2023-03-29T06:28:53.369Z,97382.38
2023-03-29T06:31:57.163Z,97383.53
2023-03-29T06:35:20.690Z,97386.25
2023-03-29T06:38:29.156Z,97373.84
2023-03-29T06:41:33.811Z,97394.75
2023-03-29T06:44:41.267Z,97383.34
2023-03-29T06:47:52.652Z,97383.75
2023-03-29T06:50:54.614Z,97388.34
2023-03-29T06:53:59.414Z,97397.88
2023-03-29T06:57:03.859Z,97385.41
2023-03-29T07:00:18.938Z,97390.69
2023-03-29T07:03:39.146Z,97395.38
2023-03-29T07:06:40.863Z,97398.38
2023-03-29T07:09:42.369Z,97397.69
2023-03-29T07:13:02.432Z,97410.41
2023-03-29T07:16:04.218Z,97427.22
2023-03-29T07:19:25.198Z,97419.19
2023-03-29T07:22:29.580Z,97415.09
2023-03-29T07:25:36.264Z,97423.34
2023-03-29T07:28:39.294Z,97418.81
2023-03-29T07:31:41.566Z,97417.53
2023-03-29T07:35:04.212Z,97418.81
2023-03-29T07:38:09.484Z,97418.09
2023-03-29T07:41:14.455Z,97426.03
2023-03-29T07:44:29.406Z,97434.09
2023-03-29T07:47:31.456Z,97435.34
2023-03-29T07:50:33.673Z,97439.59
2023-03-29T07:53:38.498Z,97439.84
2023-03-29T07:56:47.578Z,97450.38
2023-03-29T08:00:16.992Z,97451.06
2023-03-29T08:03:28.817Z,97440.56
2023-03-29T08:06:30.815Z,97449.06
2023-03-29T08:09:32.343Z,97441.94
2023-03-29T08:12:34.095Z,97443.69
2023-03-29T08:15:42.077Z,97446.25
2023-03-29T08:18:53.712Z,97455.66
2023-03-29T08:21:57.578Z,97452.50
2023-03-29T08:25:02.610Z,97454.03
2023-03-29T08:28:08.617Z,97452.78
2023-03-29T08:31:18.247Z,97435.97
2023-03-29T08:34:20.410Z,97433.09
2023-03-29T08:37:47.408Z,97432.75
2023-03-29T08:40:50.708Z,97436.97
2023-03-29T08:44:10.770Z,97430.75
2023-03-29T08:47:41.636Z,97455.81
2023-03-29T08:50:52.763Z,97448.88
2023-03-29T08:54:34.094Z,97435.47
2023-03-29T08:57:47.842Z,97423.91
2023-03-29T09:00:59.394Z,97432.13
2023-03-29T09:04:10.180Z,97420.69
2023-03-29T09:07:26.892Z,97427.19
2023-03-29T09:10:50.204Z,97422.25
2023-03-29T09:14:22.271Z,97420.66
2023-03-29T09:17:43.334Z,97421.25
2023-03-29T09:21:00.508Z,97413.56
2023-03-29T09:24:56.374Z,97426.28
2023-03-29T09:28:25.832Z,97438.44
2023-03-29T09:31:37.184Z,97427.78
2023-03-29T09:34:45.643Z,97423.81
2023-03-29T09:37:54.679Z,97417.50
2023-03-29T09:41:04.213Z,97427.56
2023-03-29T09:44:20.569Z,97411.75
2023-03-29T09:47:36.059Z,97413.78
2023-03-29T09:50:48.776Z,97430.25
2023-03-29T09:53:50.556Z,97407.81
2023-03-29T09:57:05.737Z,97415.50
2023-03-29T10:00:10.576Z,97412.47
2023-03-29T10:03:20.494Z,97429.16
2023-03-29T10:06:28.599Z,97424.97
2023-03-29T10:09:35.694Z,97431.38
2023-03-29T10:12:54.091Z,97415.16
2023-03-29T10:16:01.397Z,97400.56
2023-03-29T10:19:36.837Z,97407.19
2023-03-29T10:22:40.445Z,97408.94
2023-03-29T10:25:43.027Z,97400.06
2023-03-29T10:28:44.861Z,97409.03
2023-03-29T10:31:46.497Z,97405.66
2023-03-29T10:34:49.826Z,97403.97
2023-03-29T10:37:53.306Z,97400.75
2023-03-29T10:41:03.598Z,97393.25
2023-03-29T10:44:05.566Z,97390.09
2023-03-29T10:47:16.006Z,97390.19
2023-03-29T10:50:17.567Z,97387.25
2023-03-29T10:53:31.653Z,97385.78
2023-03-29T10:56:45.169Z,97380.81
2023-03-29T10:59:55.654Z,97390.84
2023-03-29T11:03:14.459Z,97388.47
2023-03-29T11:06:54.219Z,97382.44
2023-03-29T11:10:05.677Z,97368.53
2023-03-29T11:13:38.922Z,97372.94
2023-03-29T11:16:55.335Z,97367.81
2023-03-29T11:20:15.873Z,97365.94
2023-03-29T11:23:45.829Z,97366.25
2023-03-29T11:27:05.958Z,97364.50
2023-03-29T11:30:43.417Z,97355.00
2023-03-29T11:33:57.084Z,97365.44
2023-03-29T11:37:26.699Z,97379.47
2023-03-29T11:40:44.971Z,97374.59
2023-03-29T11:43:52.902Z,97379.75
2023-03-29T11:47:08.259Z,97378.94
2023-03-29T11:50:21.574Z,97366.50
2023-03-29T11:53:31.529Z,97369.84
2023-03-29T11:56:52.184Z,97376.88
2023-03-29T12:00:07.508Z,97369.44
2023-03-29T12:03:37.074Z,97375.97
2023-03-29T12:06:47.684Z,97370.34
2023-03-29T12:09:55.006Z,97355.19
2023-03-29T12:13:03.141Z,97328.81
2023-03-29T12:16:28.054Z,97334.97
2023-03-29T12:19:43.207Z,97338.09
2023-03-29T12:22:49.172Z,97340.13
2023-03-29T12:26:00.415Z,97331.97
2023-03-29T12:29:38.942Z,97334.97
2023-03-29T12:32:57.631Z,97324.47
2023-03-29T12:36:52.007Z,97323.94
2023-03-29T12:40:16.521Z,97317.34
2023-03-29T12:43:41.517Z,97332.03
2023-03-29T12:47:01.458Z,97344.44
2023-03-29T12:50:04.640Z,97322.72
2023-03-29T12:53:13.346Z,97312.31
2023-03-29T12:56:20.801Z,97310.88
2023-03-29T12:59:27.181Z,97310.84
2023-03-29T13:02:36.999Z,97310.72
2023-03-29T13:05:39.184Z,97325.19
2023-03-29T13:08:42.487Z,97300.75
2023-03-29T13:11:45.617Z,97320.97
2023-03-29T13:14:52.573Z,97309.50
2023-03-29T13:18:09.136Z,97308.97
2023-03-29T13:21:40.864Z,97300.25
2023-03-29T13:24:48.549Z,97302.78
2023-03-29T13:28:06.061Z,97296.66
2023-03-29T13:31:27.373Z,97306.03
2023-03-29T13:34:40.117Z,97292.78
2023-03-29T13:38:00.380Z,97296.72
2023-03-29T13:41:05.006Z,97296.88
2023-03-29T13:44:27.152Z,97296.06
2023-03-29T13:47:43.235Z,97282.78
2023-03-29T13:51:01.098Z,97283.47
2023-03-29T13:54:32.170Z,97288.50
2023-03-29T13:57:41.303Z,97288.16
2023-03-29T14:01:07.229Z,97289.00
2023-03-29T14:04:20.888Z,97293.47
2023-03-29T14:07:26.231Z,97283.47
2023-03-29T14:10:40.929Z,97270.72
2023-03-29T14:13:43.175Z,97265.25
2023-03-29T14:16:44.768Z,97269.78
2023-03-29T14:19:47.467Z,97273.41
2023-03-29T14:22:49.517Z,97261.59
2023-03-29T14:25:51.638Z,97270.00
2023-03-29T14:28:56.676Z,97258.00
2023-03-29T14:32:09.515Z,97254.59
2023-03-29T14:35:11.094Z,97246.28
2023-03-29T14:38:12.870Z,97258.38
2023-03-29T14:41:14.642Z,97253.91
2023-03-29T14:44:18.673Z,97250.94
2023-03-29T14:47:29.556Z,97242.31
2023-03-29T14:50:31.438Z,97242.41
2023-03-29T14:53:34.554Z,97240.44
2023-03-29T14:56:36.633Z,97234.84
2023-03-29T14:59:41.320Z,97242.72
2023-03-29T15:03:00.181Z,97232.78
2023-03-29T15:06:04.622Z,97236.06
2023-03-29T15:09:07.077Z,97237.59
2023-03-29T15:12:16.187Z,97241.13
2023-03-29T15:15:18.098Z,97228.88
2023-03-29T15:18:27.043Z,97233.88
2023-03-29T15:21:34.042Z,97246.66
2023-03-29T15:24:43.218Z,97236.47
2023-03-29T15:27:44.749Z,97225.41
2023-03-29T15:30:54.257Z,97225.41
2023-03-29T15:34:12.481Z,97225.19
2023-03-29T15:37:14.012Z,97223.69
2023-03-29T15:40:17.131Z,97223.56
2023-03-29T15:43:21.217Z,97230.00
2023-03-29T15:46:22.790Z,97230.19
2023-03-29T15:49:24.881Z,97236.28
2023-03-29T15:52:26.358Z,97225.50
2023-03-29T15:55:29.847Z,97220.22
2023-03-29T15:58:33.488Z,97220.16
2023-03-29T16:01:37.396Z,97228.00
2023-03-29T16:04:39.263Z,97232.34
2023-03-29T16:07:43.738Z,97226.75
2023-03-29T16:10:51.015Z,97226.31
2023-03-29T16:13:52.779Z,97225.16
2023-03-29T16:16:55.833Z,97226.00
2023-03-29T16:19:58.494Z,97233.38
2023-03-29T16:23:09.404Z,97224.16
2023-03-29T16:26:12.839Z,97215.53
2023-03-29T16:29:15.969Z,97216.31
2023-03-29T16:32:17.594Z,97214.66
2023-03-29T16:35:26.128Z,97219.53
2023-03-29T16:38:29.146Z,97215.75
2023-03-29T16:41:31.520Z,97216.56
2023-03-29T16:44:33.075Z,97215.53
2023-03-29T16:47:34.571Z,97207.69
2023-03-29T16:50:36.203Z,97201.44
2023-03-29T16:53:38.069Z,97195.72
2023-03-29T16:56:39.599Z,97192.91
2023-03-29T16:59:44.962Z,97191.44
2023-03-29T17:02:49.749Z,97177.34
2023-03-29T17:05:53.586Z,97161.31
2023-03-29T17:08:55.009Z,97152.63
2023-03-29T17:11:56.445Z,97164.50
2023-03-29T17:14:58.005Z,97179.91
2023-03-29T17:17:59.517Z,97180.06
2023-03-29T17:21:01.911Z,97177.94
2023-03-29T17:24:03.814Z,97184.69
2023-03-29T17:27:05.357Z,97179.50
2023-03-29T17:30:07.346Z,97182.63
2023-03-29T17:33:08.866Z,97181.13
2023-03-29T17:36:11.112Z,97188.72
2023-03-29T17:39:15.210Z,97200.03
2023-03-29T17:42:17.337Z,97208.44
2023-03-29T17:45:19.768Z,97191.16
2023-03-29T17:48:22.850Z,97200.03
2023-03-29T17:51:24.723Z,97199.75
2023-03-29T17:54:26.273Z,97205.09
2023-03-29T17:57:28.097Z,97206.00
2023-03-29T18:00:29.651Z,97213.03
2023-03-29T18:03:31.890Z,97222.59
2023-03-29T18:06:34.931Z,97224.78
2023-03-29T18:09:36.904Z,97219.47
2023-03-29T18:12:38.748Z,97198.25
2023-03-29T18:15:55.706Z,97173.66
2023-03-29T18:18:57.266Z,97170.56
2023-03-29T18:21:58.850Z,97178.88
2023-03-29T18:25:00.341Z,97180.25
2023-03-29T18:28:01.779Z,97171.69
2023-03-29T18:31:04.375Z,97174.84
2023-03-29T18:34:05.898Z,97176.28
2023-03-29T18:37:09.220Z,97177.03
2023-03-29T18:40:11.127Z,97167.72
2023-03-29T18:43:12.814Z,97166.31
2023-03-29T18:46:14.633Z,97163.69
2023-03-29T18:49:16.412Z,97169.00
2023-03-29T18:52:17.952Z,97170.75
2023-03-29T18:55:19.412Z,97169.84
2023-03-29T18:58:23.968Z,97173.00
2023-03-29T19:01:26.033Z,97159.34
2023-03-29T19:04:28.733Z,97162.63
2023-03-29T19:07:30.409Z,97156.00
2023-03-29T19:10:39.282Z,97165.34
2023-03-29T19:13:41.413Z,97153.09
2023-03-29T19:16:43.056Z,97147.34
2023-03-29T19:19:44.833Z,97154.75
2023-03-29T19:22:46.625Z,97149.66
2023-03-29T19:26:00.254Z,97145.88
2023-03-29T19:29:01.835Z,97154.38
2023-03-29T19:32:03.739Z,97150.66
2023-03-29T19:35:05.796Z,97145.34
2023-03-29T19:38:07.365Z,97142.41
2023-03-29T19:41:08.950Z,97137.03
2023-03-29T19:44:10.523Z,97133.88
2023-03-29T19:47:12.060Z,97121.56
2023-03-29T19:50:14.224Z,97127.34
2023-03-29T19:53:15.909Z,97136.19
2023-03-29T19:56:17.783Z,97131.25
2023-03-29T19:59:20.123Z,97135.44
2023-03-29T20:02:21.618Z,97133.56
2023-03-29T20:05:24.131Z,97128.81
2023-03-29T20:08:26.334Z,97115.25
2023-03-29T20:11:28.839Z,97122.47
2023-03-29T20:14:30.800Z,97114.81
2023-03-29T20:17:35.401Z,97115.03
2023-03-29T20:20:36.882Z,97109.63
2023-03-29T20:23:38.376Z,97104.88
2023-03-29T20:26:39.815Z,97095.66
2023-03-29T20:29:41.287Z,97085.41
2023-03-29T20:32:42.845Z,97078.06
2023-03-29T20:35:45.752Z,97082.66
2023-03-29T20:38:47.440Z,97082.72
2023-03-29T20:41:51.532Z,97072.69
2023-03-29T20:44:53.746Z,97077.69
2023-03-29T20:48:02.087Z,97062.03
2023-03-29T20:51:10.032Z,97066.69
2023-03-29T20:54:11.508Z,97065.94
2023-03-29T20:57:15.943Z,97062.78
2023-03-29T21:00:19.714Z,97068.50
2023-03-29T21:03:21.351Z,97059.94
2023-03-29T21:06:24.325Z,97062.59
2023-03-29T21:09:25.837Z,97064.94
2023-03-29T21:12:27.501Z,97054.59
2023-03-29T21:15:30.581Z,97048.63
2023-03-29T21:18:32.364Z,97050.66
2023-03-29T21:21:34.996Z,97047.41
2023-03-29T21:24:36.566Z,97037.50
2023-03-29T21:27:38.555Z,97040.38
2023-03-29T21:30:40.159Z,97034.69
2023-03-29T21:33:41.612Z,97020.22
2023-03-29T21:36:43.049Z,97026.91
2023-03-29T21:39:44.500Z,97017.56
2023-03-29T21:42:46.267Z,97014.91
2023-03-29T21:45:49.679Z,97017.03
2023-03-29T21:48:51.220Z,97007.13
2023-03-29T21:51:52.886Z,97005.50
2023-03-29T21:54:54.319Z,97010.59
2023-03-29T21:57:55.824Z,96998.09
2023-03-29T22:00:57.402Z,97003.28
2023-03-29T22:03:59.021Z,96997.34
2023-03-29T22:07:00.531Z,96998.41
2023-03-29T22:10:04.208Z,97002.31
2023-03-29T22:13:05.910Z,96992.44
2023-03-29T22:16:08.765Z,96998.13
2023-03-29T22:19:10.648Z,97003.53
2023-03-29T22:22:14.369Z,97003.53
2023-03-29T22:25:19.525Z,96997.31
2023-03-29T22:28:21.088Z,96990.50
2023-03-29T22:31:24.119Z,96984.53
2023-03-29T22:34:25.618Z,96994.78
2023-03-29T22:37:27.072Z,96983.56
2023-03-29T22:40:28.648Z,96986.53
2023-03-29T22:43:30.485Z,96980.09
2023-03-29T22:46:32.014Z,96969.56
2023-03-29T22:49:33.658Z,96979.59
2023-03-29T22:52:35.270Z,96961.47
2023-03-29T22:55:37.165Z,96972.22
2023-03-29T22:58:38.680Z,96966.47
2023-03-29T23:01:40.541Z,96969.06
2023-03-29T23:04:42.285Z,96971.00
2023-03-29T23:07:43.825Z,96973.50
2023-03-29T23:10:47.013Z,96966.03
2023-03-29T23:13:48.829Z,96956.13
2023-03-29T23:16:50.447Z,96958.06
2023-03-29T23:19:52.052Z,96957.81
2023-03-29T23:22:53.457Z,96940.63
2023-03-29T23:25:55.843Z,96937.06
2023-03-29T23:28:57.544Z,96948.06
2023-03-29T23:31:59.555Z,96950.50
2023-03-29T23:35:01.279Z,96944.84
2023-03-29T23:38:03.493Z,96937.81
2023-03-29T23:41:08.332Z,96936.31
2023-03-29T23:44:10.212Z,96932.53
2023-03-29T23:47:11.723Z,96938.88
2023-03-29T23:50:14.522Z,96944.00
2023-03-29T23:53:16.086Z,96938.22
2023-03-29T23:56:17.593Z,96941.78
2023-03-29T23:59:19.185Z,96938.59
